Impacts TAF Board INFO
FOR SITUATIONAL AWARENESS. NOT TO BE USED FOR FLIGHT PLANNING PURPOSES.
IDs:

KMDW - Chicago/Midway Intl, IL, US

Issued at 2331 UTC 22 Jun 2018
Updated at 0009 UTC 23 Jun 2018
Potential Impact None Slight Moderate High
Time<<24/01Z 24/02Z 24/03Z 24/04Z 24/05Z 24/06Z 24/07Z 24/08Z 24/09Z 24/10Z 24/11Z 24/12Z 24/13Z
Type PRVL PRVL PRVL PRVL PRVL
VIS >6 >6 >6 >6 >6
CIG 250 250 250 250 250
Cover BKN BKN BKN BKN BKN
FltCat VFR VFR VFR VFR VFR
WX -- -- -- -- --
WDir 40 40 40 40 40
WSpd 9 9 9 9 9
WGst -- -- -- -- --

Raw TAF
KMDW 222331Z 2300/2406 01008KT 6SM BR VCSH FEW008 BKN012 OVC020
  TEMPO 2300/2302 3SM -DZ BR
  FM230900 36006KT 4SM BR SCT007 OVC012
  FM231400 35009KT P6SM OVC015
  FM232100 04009KT P6SM SCT035 BKN250


METAR Board
Radar Display
Forecast Discussion

FOR SITUATIONAL AWARENESS. NOT TO BE USED FOR FLIGHT PLANNING PURPOSES.